> The 30th Presentation > Registration & Results > Results > 1999 Marathon > 1999 Big Sur Marathon Clydesdale Masters

1999 Big Sur Marathon Clydesdale Masters

Big Sur International Marathon
04/25/99 - Big Sur, CA
Timing & Results: Total Race Systems - 415/472-7223

 4-25-99     BIG SUR MARATHON                                                 
CLYDESDALE - MASTERS
O'All Sex Div
Place Name Place Time Place Div Place Pace
1. Terry Parks, Tacoma 80 3:11:13 75 M45-49 8 7:17
2. Brian Hopp, Mission Viejo 167 3:24:06 153 M40-44 34 7:47
3. Peter Jack, Delta 180 3:25:45 165 M40-44 37 7:51
4. Jeff Sauter, Dana Point 300 3:34:09 260 M40-44 50 8:10
5. John Winfield, Delta 316 3:35:11 272 M50-54 21 8:12
6. Stephen Hamilton, Orem 338 3:36:01 288 M40-44 57 8:14
7. Jd Smith, Carmel 431 3:40:07 365 M40-44 68 8:24
8. Brent Anderson, Lindon 440 3:40:30 373 M40-44 69 8:24
9. Reid Schantz, Scotts Vall 478 3:41:49 401 M45-49 50 8:27
10. Laurence Babb, Spokane 850 3:57:35 679 M45-49 84 9:04
11. Richard Yates, Beaverton 881 3:58:34 703 M40-44 126 9:06
12. James Peck, Portland 887 3:58:47 707 M50-54 62 9:06
13. Gray Ellroot, Armonv 894 3:59:11 712 M50-54 64 9:07
14. Adam Cheslin, Orchard Lak 980 4:02:51 768 M40-44 137 9:16
15. Edward Mills, Calgary 1018 4:05:20 789 M40-44 143 9:21
16. Malcom Patrick, Benicia 1096 4:08:42 841 M50-54 77 9:29
17. David Marvel, Twentynine 1113 4:09:20 851 M50-54 80 9:30
18. Steve Smoot, El Cajon 1120 4:09:25 854 M40-44 155 9:31
19. Clayton Vreeland, Los Ang 1133 4:10:01 862 M40-44 157 9:32
20. Sara Appelbaum, Temple Te 1227 4:13:52 303 F 45-49 22 9:41
21. Rick Edson, Sacramonto 1230 4:14:00 927 M50-54 95 9:41
22. Deon Erasmus, Provost 1314 4:17:50 982 M40-44 173 9:50
23. Charles Jensen, Santa Ros 1337 4:18:42 1000 M50-54 103 9:52
24. Daniel Cavanaugh, Santa B 1350 4:19:13 1010 M40-44 178 9:53
25. Jean Roeder, Fulton 1408 4:20:55 361 F 45-49 27 9:57
26. Marlene McDonald, Edmonto 1459 4:22:34 384 F 40-44 48 10:01
27. Ed Sumner, Brentwood 1499 4:23:41 1100 M50-54 117 10:03
28. Ronald Key, San Jose 1522 4:24:42 1117 M50-54 119 10:06
29. Anita Williams, Marina 1532 4:25:08 408 F 40-44 52 10:07
30. Nick Pavlinic, Crofton 1577 4:26:32 1153 M45-49 139 10:10
31. John Holloway, Seaside 1658 4:29:39 1204 M45-49 149 10:17
32. Mike Binder, Salinas 1698 4:31:35 1225 M40-44 216 10:21
33. Bill Cox, Carmel 1772 4:34:42 1269 M45-49 160 10:29
34. Stan Hannath, Newlands Ca 1790 4:35:18 1279 M50-54 137 10:30
35. Peggy Ryan, Phoenix 1828 4:37:22 532 F 45-49 48 10:35
36. Catherine Gonzales, Thous 1849 4:38:27 545 F 40-44 73 10:37
37. Ann Scarry, Fort Myers 1860 4:38:44 549 F 40-44 75 10:38
38. Mary Christianson, Boise 1911 4:41:09 575 F 40-44 78 10:43
39. Lawton Warzala, Chicago 1928 4:41:50 1350 M40-44 231 10:45
40. Bob Kopenec, Carlsbad 1940 4:42:31 1355 M45-49 171 10:46
41. Eugene Morel, Kansas City 1943 4:42:36 1356 M45-49 172 10:47
42. John King, Minneapolis 2036 4:46:55 1405 M45-49 183 10:57
43. Stephen Harkins, Santa Is 2088 4:49:34 1433 M45-49 188 11:03
44. Theresa Kwas, Calgary 2163 4:54:27 688 F 45-49 69 11:14
45. Tim Netzell, St Paul 2165 4:54:29 1476 M40-44 250 11:14
46. Margaret Smith, Calgary 2166 4:54:29 690 F 45-49 70 11:14
47. Sharon Gough, Salt Lake C 2170 4:54:48 693 F 45-49 71 11:15
48. Patrick Johnson, Pleasant 2175 4:55:04 1479 M40-44 251 11:15
49. Martha Pierce, Salt Lake 2191 4:56:29 704 F 40-44 98 11:18
50. Nick Weber, San Miguel 2196 4:57:19 1488 M40-44 254 11:20
51. Peggy Logsdon, Santa Barb 2208 4:57:54 712 F 40-44 99 11:22
52. Ron Adams, Sacramento 2233 4:59:53 1511 M50-54 163 11:26
53. Delbart Banks, Hayward 2239 5:00:03 1516 M45-49 198 11:27
54. Doug Bailey, Woodinville 2243 5:00:32 1519 M40-44 258 11:28
55. Steve Brown, Leesburg 2258 5:01:35 1527 M50-54 166 11:30
56. Allen Worsley, Earlville 2263 5:02:26 1530 M50-54 167 11:32
57. George H. Smith, Santa C 2291 5:05:20 1546 M50-54 168 11:39
58. Greg Knight, San Jose 2306 5:06:32 1556 M40-44 265 11:41
59. Karen Wells, San Jose 2307 5:06:34 751 F 40-44 107 11:42
60. Rick Schaefer, San Jose 2308 5:06:34 1557 M45-49 204 11:42
61. David Brostrom, Waukesha 2309 5:06:35 1558 M45-49 205 11:42
62. Joseph Linn, Issaquah 2312 5:06:46 1560 M45-49 206 11:42
63. Martin Henderson, Seaside 2332 5:08:03 1567 M40-44 267 11:45
64. Jeffrey Wold, Aurora 2338 5:08:31 1569 M40-44 268 11:46
65. Daniel Kessler, Lancaster 2344 5:08:48 1574 M40-44 270 11:47
66. Andrew Obeso, Monterey 2346 5:08:58 1575 M50-54 174 11:47
67. Tim Burke, Concord 2393 5:13:24 1600 M40-44 275 11:57
68. Gregory Jahnke, San Franc 2394 5:13:36 1601 M40-44 276 11:58
69. John Baker, Houston 2402 5:13:49 1607 M50-54 180 11:58
70. Mark Morgan, Livermore 2403 5:13:49 1608 M40-44 277 11:58
71. Victor Garcia, Fort Worth 2425 5:17:08 1619 M45-49 209 12:06
72. Alan Steggles, Rvenna 2480 5:24:07 1650 M60-64 46 12:22
73. Kim Rinehart, Pacific Gro 2485 5:25:11 1653 M50-54 189 12:24
74. Richard Soares, Salinas 2492 5:25:54 1657 M55-59 83 12:26


Copyright © 1998 Total Race Systems, Inc.
80 Mitchell Blvd, San Rafael, CA 94903 USA
1-800-998-7904
Contact us!